Time;durP1;ratioP1;P1;durP2;ratioP2;P2;SDS_P1;SDS_P2;PMS_P1;PMS_P2;Temp;Humidity;BMP_temperature;BMP_pressure;BME280_temperature;BME280_humidity;BME280_pressure;Samples;Min_cycle;Max_cycle;Signal;HPM_P1;HPM_P2
2023/08/27 00:01:05;;;;;;;6.13;1.15;;;;;;;17.33;100.00;100531.91;5084283;28;20056;-70
2023/08/27 00:03:30;;;;;;;8.98;1.65;;;;;;;17.27;100.00;100538.31;5085465;28;20067;-70
2023/08/27 00:05:56;;;;;;;9.60;1.90;;;;;;;17.27;100.00;100537.50;5084682;28;20082;-70
2023/08/27 00:08:22;;;;;;;10.60;1.50;;;;;;;17.11;100.00;100518.25;5085702;28;20062;-71
2023/08/27 00:10:47;;;;;;;7.13;1.58;;;;;;;17.26;100.00;100539.41;5083217;28;20035;-70
2023/08/27 00:13:12;;;;;;;11.20;1.70;;;;;;;17.26;100.00;100539.41;5085006;28;20025;-70
2023/08/27 00:15:44;;;;;;;6.05;1.30;;;;;;;17.26;100.00;100533.16;5085189;28;20055;-70
2023/08/27 00:18:10;;;;;;;5.57;1.23;;;;;;;17.20;100.00;100537.69;5086211;28;20029;-71
2023/08/27 00:20:35;;;;;;;8.13;1.38;;;;;;;17.17;100.00;100535.47;5086230;28;20036;-70
2023/08/27 00:23:01;;;;;;;7.07;1.40;;;;;;;17.18;100.00;100537.09;5085671;28;20515;-70
2023/08/27 00:25:26;;;;;;;8.77;1.27;;;;;;;17.19;100.00;100541.50;5086642;28;20032;-70
2023/08/27 00:27:51;;;;;;;6.57;1.48;;;;;;;17.18;100.00;100536.28;5094520;28;20034;-69
2023/08/27 00:30:17;;;;;;;12.05;1.63;;;;;;;17.08;100.00;100531.50;5104643;28;20059;-70
2023/08/27 00:32:42;;;;;;;12.48;1.85;;;;;;;17.11;100.00;100541.88;5104683;28;20055;-70
2023/08/27 00:35:08;;;;;;;5.43;1.17;;;;;;;17.10;100.00;100545.69;5106850;28;20096;-70
2023/08/27 00:37:33;;;;;;;6.90;1.35;;;;;;;17.08;100.00;100551.38;5105323;28;20154;-70
2023/08/27 00:39:59;;;;;;;11.35;1.50;;;;;;;17.04;100.00;100552.94;5107051;28;20028;-70
2023/08/27 00:42:24;;;;;;;6.40;1.20;;;;;;;17.06;100.00;100555.44;5103674;28;20032;-70
2023/08/27 00:44:50;;;;;;;6.07;1.35;;;;;;;17.09;100.00;100553.03;5095201;28;20063;-70
2023/08/27 00:47:16;;;;;;;9.93;1.45;;;;;;;17.06;100.00;100555.44;5096821;28;20025;-70
2023/08/27 00:49:42;;;;;;;7.90;1.50;;;;;;;17.05;100.00;100556.47;5096140;28;20051;-71
2023/08/27 00:52:09;;;;;;;11.10;1.75;;;;;;;16.99;100.00;100557.50;5080242;28;20105;-70
2023/08/27 00:54:35;;;;;;;5.88;1.38;;;;;;;16.84;100.00;100533.59;5096944;28;20017;-70
2023/08/27 00:57:04;;;;;;;8.20;1.52;;;;;;;17.01;100.00;100560.75;5098079;28;20034;-70
2023/08/27 00:59:31;;;;;;;7.68;1.40;;;;;;;17.00;100.00;100562.66;5096925;28;20024;-70
2023/08/27 01:01:56;;;;;;;9.15;1.85;;;;;;;16.98;100.00;100561.25;5098907;28;20027;-70
2023/08/27 01:04:22;;;;;;;5.82;1.38;;;;;;;16.95;100.00;100559.03;5098036;28;20496;-70
2023/08/27 01:06:47;;;;;;;7.45;1.70;;;;;;;16.85;100.00;100544.22;5097990;28;20032;-70
2023/08/27 01:09:25;;;;;;;9.10;1.67;;;;;;;16.90;100.00;100552.44;5098218;28;20024;-70
2023/08/27 01:12:09;;;;;;;12.05;1.85;;;;;;;16.93;100.00;100553.84;5097302;28;20020;-70
2023/08/27 01:14:36;;;;;;;7.53;1.50;;;;;;;16.84;100.00;100569.75;5093336;28;20020;-70
2023/08/27 01:17:03;;;;;;;4.20;1.20;;;;;;;16.80;100.00;100563.16;5097594;28;20036;-70
2023/08/27 01:19:30;;;;;;;7.53;1.50;;;;;;;16.76;100.00;100545.72;5096968;28;20035;-70
2023/08/27 01:21:55;;;;;;;10.02;2.00;;;;;;;16.89;100.00;100558.97;5097888;28;20098;-70
2023/08/27 01:24:21;;;;;;;6.28;1.50;;;;;;;16.77;100.00;100551.97;5096869;28;20058;-70
2023/08/27 01:26:58;;;;;;;8.32;1.40;;;;;;;16.90;100.00;100557.06;5097311;28;20110;-70
2023/08/27 01:29:46;;;;;;;5.55;1.27;;;;;;;16.88;100.00;100560.00;5098104;28;20122;-70
2023/08/27 01:32:23;;;;;;;6.85;1.40;;;;;;;16.92;100.00;100560.38;5098303;28;20265;-70
2023/08/27 01:34:48;;;;;;;4.47;1.50;;;;;;;16.81;100.00;100540.34;5100082;28;20020;-70
2023/08/27 01:37:14;;;;;;;7.43;1.50;;;;;;;16.82;100.00;100533.00;5081636;28;20028;-70
2023/08/27 01:39:42;;;;;;;9.30;1.55;;;;;;;17.00;100.00;100549.06;5099948;28;20537;-70
2023/08/27 01:42:08;;;;;;;9.68;1.63;;;;;;;16.94;100.00;100544.63;5099623;28;20074;-70
2023/08/27 01:44:33;;;;;;;8.23;1.90;;;;;;;17.00;100.00;100549.06;5102622;28;20032;-70
2023/08/27 01:46:59;;;;;;;7.80;1.38;;;;;;;17.02;100.00;100546.09;5097264;28;20020;-69
2023/08/27 01:49:25;;;;;;;4.88;1.35;;;;;;;17.05;100.00;100551.88;5095731;28;20085;-70
2023/08/27 01:51:50;;;;;;;8.55;1.40;;;;;;;17.10;100.00;100556.56;5077573;28;20059;-70
2023/08/27 01:54:16;;;;;;;6.00;1.45;;;;;;;17.10;100.00;100551.94;5095215;28;20039;-70
2023/08/27 01:56:42;;;;;;;7.45;1.40;;;;;;;17.06;100.00;100558.13;5096499;28;20039;-70
2023/08/27 01:59:07;;;;;;;7.30;1.42;;;;;;;17.07;100.00;100548.91;5079485;28;20028;-70
2023/08/27 02:01:33;;;;;;;5.82;1.33;;;;;;;17.10;100.00;100548.41;5093579;28;20062;-71
2023/08/27 02:03:58;;;;;;;4.85;1.20;;;;;;;17.10;100.00;100542.97;5097128;28;20024;-70
2023/08/27 02:06:23;;;;;;;5.30;1.38;;;;;;;17.12;100.00;100538.94;5095784;28;20089;-70
2023/08/27 02:08:49;;;;;;;7.47;1.45;;;;;;;17.07;100.00;100543.47;5097533;28;20063;-70
2023/08/27 02:11:14;;;;;;;8.18;1.52;;;;;;;17.05;100.00;100542.88;5096499;28;20394;-70
2023/08/27 02:13:40;;;;;;;6.35;1.40;;;;;;;17.05;100.00;100543.72;5096363;28;20032;-70
2023/08/27 02:16:05;;;;;;;4.53;1.40;;;;;;;16.96;100.00;100538.97;5077325;28;20478;-70
2023/08/27 02:18:31;;;;;;;8.23;1.52;;;;;;;17.01;100.00;100542.56;5094249;28;20027;-70
2023/08/27 02:20:56;;;;;;;7.10;1.50;;;;;;;17.05;100.00;100535.56;5078622;28;20127;-70
2023/08/27 02:23:25;;;;;;;7.05;1.35;;;;;;;16.97;100.00;100527.00;5096966;28;20031;-69
2023/08/27 02:25:50;;;;;;;5.22;1.40;;;;;;;16.91;100.00;100513.31;5096571;28;20095;-70
2023/08/27 02:28:16;;;;;;;6.57;1.35;;;;;;;16.97;100.00;100524.28;5096701;28;20063;-70
2023/08/27 02:30:55;;;;;;;11.75;1.67;;;;;;;17.01;100.00;100523.53;5097553;28;20016;-70
2023/08/27 02:33:21;;;;;;;6.05;1.40;;;;;;;17.05;100.00;100527.41;5099039;28;20502;-70
2023/08/27 02:35:47;;;;;;;7.07;1.40;;;;;;;17.06;100.00;100522.81;5098722;28;20043;-70
2023/08/27 02:38:13;;;;;;;6.95;1.30;;;;;;;17.09;100.00;100520.41;5097473;28;20482;-70
2023/08/27 02:40:39;;;;;;;4.95;1.20;;;;;;;17.07;100.00;100513.56;5098625;28;20028;-70
2023/08/27 02:43:04;;;;;;;5.85;1.10;;;;;;;17.08;100.00;100513.31;5097197;28;20032;-70
2023/08/27 02:45:30;;;;;;;6.53;1.60;;;;;;;16.99;100.00;100503.13;5096867;28;20028;-70
2023/08/27 02:47:55;;;;;;;13.07;1.60;;;;;;;17.09;100.00;100514.16;5080556;28;20024;-70
2023/08/27 02:50:21;;;;;;;6.25;1.50;;;;;;;17.06;100.00;100510.03;5095016;28;20123;-70
2023/08/27 02:52:47;;;;;;;6.18;1.73;;;;;;;17.03;100.00;100504.28;5096146;28;20525;-70
2023/08/27 02:55:12;;;;;;;7.53;1.38;;;;;;;17.01;100.00;100493.63;5094925;28;20110;-70
2023/08/27 02:57:37;;;;;;;7.00;1.58;;;;;;;17.03;100.00;100496.94;5105274;28;20032;-70
2023/08/27 03:00:04;;;;;;;7.85;1.45;;;;;;;17.06;100.00;100490.19;5092220;28;20028;-69
2023/08/27 03:02:30;;;;;;;4.15;1.30;;;;;;;17.02;100.00;100491.72;5111937;28;20487;-69
2023/08/27 03:04:56;;;;;;;4.88;1.40;;;;;;;17.02;100.00;100494.44;5101997;28;20085;-70
2023/08/27 03:07:22;;;;;;;7.50;1.38;;;;;;;17.02;100.00;100499.88;5099337;28;20024;-70
2023/08/27 03:09:48;;;;;;;7.03;1.30;;;;;;;17.02;100.00;100497.16;5098187;28;20038;-70
2023/08/27 03:12:13;;;;;;;7.53;1.52;;;;;;;17.03;100.00;100491.50;5097193;28;20032;-70
2023/08/27 03:14:39;;;;;;;5.45;1.58;;;;;;;17.05;100.00;100491.22;5097525;28;20095;-70
2023/08/27 03:17:04;;;;;;;5.70;1.63;;;;;;;17.02;100.00;100489.00;5100320;28;20085;-70
2023/08/27 03:19:30;;;;;;;7.03;1.50;;;;;;;17.09;100.00;100493.22;5098785;28;20024;-69
2023/08/27 03:21:55;;;;;;;7.35;1.40;;;;;;;17.09;100.00;100495.13;5063846;28;20035;-69
2023/08/27 03:24:21;;;;;;;6.47;1.60;;;;;;;16.99;100.00;100474.03;5099099;28;20115;-69
2023/08/27 03:26:46;;;;;;;5.35;1.50;;;;;;;17.07;100.00;100489.09;5100956;28;20479;-70
2023/08/27 03:29:11;;;;;;;5.40;1.60;;;;;;;17.14;100.00;100490.56;5100631;28;20047;-70
2023/08/27 03:31:37;;;;;;;6.30;1.70;;;;;;;17.16;100.00;100503.09;5102274;28;20095;-70
2023/08/27 03:34:02;;;;;;;10.40;2.03;;;;;;;17.12;100.00;100498.16;5099824;28;20038;-70
2023/08/27 03:36:28;;;;;;;7.72;1.70;;;;;;;17.07;100.00;100475.50;5100869;28;20040;-70
2023/08/27 03:38:54;;;;;;;5.00;1.40;;;;;;;17.20;100.00;100505.06;5100437;28;20036;-70
2023/08/27 03:41:19;;;;;;;6.60;1.50;;;;;;;17.14;100.00;100484.31;5101707;28;20028;-69
2023/08/27 03:43:45;;;;;;;6.15;1.45;;;;;;;17.23;100.00;100503.75;5101185;28;20020;-70
2023/08/27 03:46:10;;;;;;;8.98;1.55;;;;;;;17.23;100.00;100501.03;5100257;28;20024;-70
2023/08/27 03:48:36;;;;;;;6.28;1.23;;;;;;;17.06;100.00;100482.03;5098074;28;20035;-70
2023/08/27 03:51:01;;;;;;;6.30;1.30;;;;;;;17.25;100.00;100507.88;5095783;28;20093;-70
2023/08/27 03:53:26;;;;;;;5.78;1.55;;;;;;;17.14;100.00;100497.91;5082833;28;20552;-70
2023/08/27 03:55:53;;;;;;;6.57;1.42;;;;;;;17.24;100.00;100511.63;5082917;28;20028;-70
2023/08/27 03:58:18;;;;;;;5.05;1.23;;;;;;;17.26;100.00;100520.38;5101131;28;20580;-69
2023/08/27 04:00:46;;;;;;;6.97;1.23;;;;;;;17.29;100.00;100521.78;5099300;28;20032;-70
2023/08/27 04:03:11;;;;;;;7.15;1.73;;;;;;;17.25;100.00;100526.91;5100009;28;20036;-70
2023/08/27 04:05:38;;;;;;;4.28;1.35;;;;;;;17.27;100.00;100532.88;5098242;28;20028;-70
2023/08/27 04:08:03;;;;;;;8.45;1.80;;;;;;;17.30;100.00;100537.00;5099311;28;20039;-70
2023/08/27 04:10:29;;;;;;;6.47;1.10;;;;;;;17.29;100.00;100547.06;5098198;28;20028;-70
2023/08/27 04:12:54;;;;;;;5.07;1.35;;;;;;;17.35;100.00;100548.78;5080134;28;20027;-70
2023/08/27 04:15:20;;;;;;;7.45;1.70;;;;;;;17.39;100.00;100560.00;5097539;28;20035;-70
2023/08/27 04:17:45;;;;;;;4.68;1.35;;;;;;;17.35;100.00;100551.50;5099080;28;20188;-70
2023/08/27 04:20:11;;;;;;;10.27;1.50;;;;;;;17.29;100.00;100538.91;5097803;28;20051;-70
2023/08/27 04:22:36;;;;;;;8.73;1.70;;;;;;;17.37;100.00;100552.06;5080551;28;20028;-70
2023/08/27 04:25:02;;;;;;;8.27;1.42;;;;;;;17.47;100.00;100564.16;5097883;28;20071;-69
2023/08/27 04:27:27;;;;;;;8.32;1.80;;;;;;;17.50;100.00;100574.56;5098690;28;20058;-69
2023/08/27 04:29:53;;;;;;;4.60;1.25;;;;;;;17.51;100.00;100568.03;5097850;28;20028;-69
2023/08/27 04:32:18;;;;;;;5.78;1.60;;;;;;;17.57;100.00;100573.28;5098054;28;20037;-69
2023/08/27 04:34:43;;;;;;;8.23;1.85;;;;;;;17.61;100.00;100571.75;5065181;28;20030;-69
2023/08/27 04:37:09;;;;;;;6.30;1.40;;;;;;;17.67;100.00;100575.34;5099528;28;20034;-69
2023/08/27 04:39:34;;;;;;;6.22;1.55;;;;;;;17.64;100.00;100567.66;5097965;28;20059;-69
2023/08/27 04:42:00;;;;;;;6.93;1.50;;;;;;;17.60;100.00;100563.81;5081882;28;20019;-70
2023/08/27 04:44:26;;;;;;;4.25;1.15;;;;;;;17.70;100.00;100571.28;5063868;28;20402;-70
2023/08/27 04:46:52;;;;;;;8.95;1.60;;;;;;;17.69;100.00;100570.47;5097490;28;20031;-70
2023/08/27 04:49:17;;;;;;;6.78;1.45;;;;;;;17.72;100.00;100569.97;5097207;28;20051;-70
2023/08/27 04:51:43;;;;;;;6.75;1.65;;;;;;;17.78;100.00;100569.00;5096844;28;20435;-69
2023/08/27 04:54:08;;;;;;;7.22;1.30;;;;;;;17.80;100.00;100568.72;5078674;28;20082;-70
2023/08/27 04:56:34;;;;;;;6.68;1.13;;;;;;;18.06;100.00;100557.06;5063583;28;20035;-70
2023/08/27 04:58:59;;;;;;;6.88;1.40;;;;;;;18.19;100.00;100544.97;5096480;28;20032;-69
2023/08/27 05:01:24;;;;;;;6.13;1.33;;;;;;;18.44;100.00;100552.59;5098058;28;20028;-69
2023/08/27 05:03:50;;;;;;;8.05;1.50;;;;;;;18.41;100.00;100563.16;5096865;28;20510;-70
2023/08/27 05:06:15;;;;;;;9.60;1.33;;;;;;;18.94;100.00;100573.25;5096283;28;20028;-70
2023/08/27 05:08:42;;;;;;;7.03;1.25;;;;;;;19.51;100.00;100571.72;5098799;28;20119;-70
2023/08/27 05:11:07;;;;;;;5.80;1.20;;;;;;;19.90;97.93;100566.75;5100077;28;20077;-70
2023/08/27 05:13:33;;;;;;;5.80;1.45;;;;;;;20.10;95.38;100543.34;5101627;28;20135;-70
2023/08/27 05:15:58;;;;;;;5.75;1.10;;;;;;;20.61;92.91;100562.59;5083267;28;20024;-70
2023/08/27 05:18:24;;;;;;;6.20;1.38;;;;;;;20.68;91.27;100537.72;5100202;28;20024;-70
2023/08/27 05:20:50;;;;;;;5.38;1.10;;;;;;;20.85;90.05;100546.47;5080457;28;20024;-70
2023/08/27 05:23:17;;;;;;;6.55;1.25;;;;;;;21.02;88.63;100544.25;5079159;28;20024;-69
2023/08/27 05:25:44;;;;;;;9.55;1.30;;;;;;;21.30;87.21;100544.78;5096375;28;20024;-69
2023/08/27 05:28:09;;;;;;;4.68;1.10;;;;;;;21.74;84.36;100555.06;5096040;28;20031;-69
2023/08/27 05:30:34;;;;;;;7.25;1.60;;;;;;;21.89;82.79;100544.06;5096142;28;20036;-70
2023/08/27 05:33:00;;;;;;;5.85;1.50;;;;;;;21.70;83.26;100540.31;5095882;28;20035;-69
2023/08/27 05:35:25;;;;;;;8.20;1.30;;;;;;;20.83;89.18;100527.59;5097243;28;20152;-69
2023/08/27 05:37:51;;;;;;;3.65;1.15;;;;;;;20.30;93.81;100529.72;5078975;28;20028;-69
2023/08/27 05:40:16;;;;;;;5.70;1.10;;;;;;;20.10;96.65;100533.22;5096220;28;20031;-69
2023/08/27 05:42:41;;;;;;;4.93;1.38;;;;;;;20.00;98.12;100543.28;5095963;28;20043;-69
2023/08/27 05:45:07;;;;;;;5.43;1.30;;;;;;;19.90;98.83;100523.06;5078168;28;20384;-69
2023/08/27 05:47:33;;;;;;;2.22;0.90;;;;;;;20.01;99.28;100547.69;5096605;28;20071;-69
2023/08/27 05:49:58;;;;;;;5.82;1.55;;;;;;;19.89;99.78;100547.88;5095902;28;20024;-69
2023/08/27 05:52:24;;;;;;;4.00;1.17;;;;;;;19.87;100.00;100539.97;5077977;28;20064;-69
2023/08/27 05:54:49;;;;;;;3.67;1.08;;;;;;;19.64;100.00;100530.31;5077190;28;20040;-69
2023/08/27 05:57:15;;;;;;;3.35;1.05;;;;;;;19.70;100.00;100545.66;5075525;28;20031;-69
2023/08/27 05:59:40;;;;;;;4.40;1.00;;;;;;;19.71;99.27;100533.63;5077249;28;20024;-70
2023/08/27 06:02:07;;;;;;;3.15;0.98;;;;;;;19.82;98.85;100544.59;5058969;28;20038;-69
2023/08/27 06:04:33;;;;;;;3.28;1.00;;;;;;;20.02;98.06;100552.03;5042519;28;20070;-69
2023/08/27 06:06:58;;;;;;;3.15;0.98;;;;;;;20.06;97.90;100551.22;5075546;28;20036;-70
2023/08/27 06:09:24;;;;;;;4.50;1.15;;;;;;;20.10;98.00;100557.81;5076889;28;20034;-69
2023/08/27 06:11:49;;;;;;;3.70;1.00;;;;;;;20.11;98.20;100564.09;5082292;28;20040;-69
2023/08/27 06:14:14;;;;;;;3.50;0.93;;;;;;;20.10;98.13;100573.38;5068023;28;20056;-69
2023/08/27 06:16:40;;;;;;;4.47;1.20;;;;;;;20.02;98.23;100571.16;5077874;28;20104;-69
2023/08/27 06:19:05;;;;;;;2.42;0.98;;;;;;;20.04;97.65;100571.72;5075211;28;20099;-69
2023/08/27 06:21:31;;;;;;;4.43;1.15;;;;;;;20.14;97.28;100566.28;5058768;28;20053;-69
2023/08/27 06:23:56;;;;;;;4.95;1.15;;;;;;;20.05;97.15;100552.31;5079078;28;20035;-69
2023/08/27 06:26:21;;;;;;;6.28;1.20;;;;;;;20.29;96.64;100565.50;5078899;28;20441;-70
2023/08/27 06:28:47;;;;;;;4.90;1.00;;;;;;;20.20;96.98;100570.69;5097309;28;20056;-69
2023/08/27 06:31:13;;;;;;;4.07;1.00;;;;;;;20.05;97.24;100555.06;5096154;28;20402;-69
2023/08/27 06:33:38;;;;;;;4.65;0.90;;;;;;;20.25;96.57;100550.75;5095574;28;20028;-70
2023/08/27 06:36:07;;;;;;;4.82;1.23;;;;;;;20.52;95.74;100561.47;5096939;28;20020;-70
2023/08/27 06:38:32;;;;;;;5.57;0.95;;;;;;;20.56;95.25;100560.69;5097184;28;20039;-69
2023/08/27 06:40:59;;;;;;;4.80;0.90;;;;;;;20.49;95.31;100565.53;5096347;28;20386;-70
2023/08/27 06:43:25;;;;;;;5.25;1.10;;;;;;;20.51;95.38;100573.50;5096278;28;20114;-70
2023/08/27 06:45:51;;;;;;;4.28;1.10;;;;;;;20.51;95.06;100566.13;5095860;28;20020;-69
2023/08/27 06:48:16;;;;;;;6.22;1.20;;;;;;;20.50;94.63;100567.19;5096390;28;20020;-70
2023/08/27 06:50:42;;;;;;;4.82;1.00;;;;;;;20.41;94.90;100569.63;5097734;28;20040;-69
2023/08/27 06:53:08;;;;;;;5.25;1.00;;;;;;;20.49;94.38;100571.00;5097503;28;20407;-69
2023/08/27 06:55:33;;;;;;;4.25;1.33;;;;;;;20.43;94.97;100580.31;5097666;28;20024;-71
2023/08/27 06:57:59;;;;;;;5.68;1.10;;;;;;;20.54;94.80;100581.16;5081121;28;20049;-72
2023/08/27 07:00:25;;;;;;;2.90;1.17;;;;;;;20.67;93.93;100577.09;5099321;28;20059;-72
2023/08/27 07:02:51;;;;;;;5.35;1.08;;;;;;;20.62;93.89;100575.97;5099546;28;20099;-70
2023/08/27 07:05:16;;;;;;;4.95;1.10;;;;;;;20.55;93.72;100574.59;5097149;28;20123;-72
2023/08/27 07:07:42;;;;;;;5.00;1.00;;;;;;;20.67;93.48;100577.91;5099507;28;20046;-71
2023/08/27 07:10:08;;;;;;;4.22;1.00;;;;;;;20.83;92.92;100586.94;5095286;28;20541;-72
2023/08/27 07:12:35;;;;;;;5.28;1.67;;;;;;;21.12;91.80;100592.66;5095903;28;20032;-71
2023/08/27 07:15:02;;;;;;;7.00;1.40;;;;;;;20.90;91.90;100587.50;5097175;28;20028;-72
2023/08/27 07:17:28;;;;;;;4.90;1.08;;;;;;;20.95;91.74;100592.13;5080456;28;20050;-71
2023/08/27 07:19:54;;;;;;;5.60;1.17;;;;;;;21.08;91.59;100592.41;5080500;28;20429;-71
2023/08/27 07:22:20;;;;;;;3.47;1.10;;;;;;;21.11;91.00;100591.03;5096418;28;20028;-71
2023/08/27 07:24:46;;;;;;;5.72;1.70;;;;;;;21.15;90.68;100588.56;5096428;28;20040;-75
2023/08/27 07:27:11;;;;;;;5.38;1.20;;;;;;;21.13;90.93;100585.31;5078936;28;20044;-71
2023/08/27 07:29:36;;;;;;;3.92;1.10;;;;;;;21.21;91.01;100590.22;5079918;28;20020;-69
2023/08/27 07:32:03;;;;;;;4.63;1.00;;;;;;;21.32;90.56;100587.19;5097944;28;20059;-71
2023/08/27 07:34:29;;;;;;;4.57;0.98;;;;;;;21.23;90.87;100588.84;5098053;28;20039;-70
2023/08/27 07:36:56;;;;;;;5.82;1.25;;;;;;;21.37;90.29;100588.31;5097287;28;20032;-69
2023/08/27 07:39:22;;;;;;;2.22;1.00;;;;;;;21.17;89.84;100586.41;5097326;28;20067;-69
2023/08/27 07:41:49;;;;;;;2.67;1.00;;;;;;;21.41;89.11;100603.91;5093340;28;20032;-69
2023/08/27 07:44:17;;;;;;;4.47;1.05;;;;;;;21.20;90.32;100603.09;5096128;28;20027;-69
2023/08/27 07:46:43;;;;;;;2.70;0.95;;;;;;;21.22;90.37;100600.88;5098745;28;20028;-69
2023/08/27 07:49:09;;;;;;;3.92;1.20;;;;;;;21.38;90.08;100623.59;5101810;28;20081;-69
2023/08/27 07:51:36;;;;;;;4.47;0.82;;;;;;;21.36;89.89;100603.91;5102183;28;20052;-69
2023/08/27 07:54:01;;;;;;;3.95;1.35;;;;;;;21.22;90.29;100621.94;5101115;28;20034;-69
2023/08/27 07:56:26;;;;;;;2.97;1.00;;;;;;;21.15;90.30;100624.16;5101165;28;20107;-69
2023/08/27 07:58:52;;;;;;;3.72;1.40;;;;;;;21.02;90.87;100631.78;5100740;28;20024;-69
2023/08/27 08:01:18;;;;;;;4.10;1.27;;;;;;;21.04;90.70;100620.59;5101312;28;20047;-71
2023/08/27 08:03:43;;;;;;;3.33;1.17;;;;;;;21.22;89.99;100617.28;5098360;28;20458;-69
2023/08/27 08:06:09;;;;;;;3.08;1.02;;;;;;;21.46;90.05;100623.06;5099281;28;20111;-69
2023/08/27 08:08:34;;;;;;;1.65;1.08;;;;;;;21.45;90.63;100632.34;5100894;28;20024;-68
2023/08/27 08:11:00;;;;;;;4.07;1.05;;;;;;;21.60;90.03;100617.84;5099766;28;20028;-70
2023/08/27 08:13:26;;;;;;;5.13;1.10;;;;;;;21.66;90.33;100644.13;5101308;28;20035;-69
2023/08/27 08:15:53;;;;;;;4.22;1.20;;;;;;;21.67;90.32;100640.28;5101329;28;20056;-70
2023/08/27 08:18:18;;;;;;;6.93;1.50;;;;;;;21.76;89.43;100632.31;5093295;28;20039;-70
2023/08/27 08:20:44;;;;;;;3.05;1.13;;;;;;;21.65;89.65;100647.09;5083404;28;20035;-70
2023/08/27 08:23:10;;;;;;;4.35;1.48;;;;;;;21.42;89.95;100626.59;5101778;28;20031;-70
2023/08/27 08:25:37;;;;;;;5.88;1.20;;;;;;;21.71;88.93;100635.06;5097936;28;20032;-70
2023/08/27 08:28:03;;;;;;;3.50;1.00;;;;;;;21.73;88.61;100638.34;5099552;28;20039;-70
2023/08/27 08:30:29;;;;;;;7.25;1.20;;;;;;;21.60;88.99;100634.25;5099633;28;20028;-70
2023/08/27 08:32:54;;;;;;;4.85;1.30;;;;;;;21.66;88.40;100644.13;5101868;28;20160;-69
2023/08/27 08:35:20;;;;;;;8.27;1.40;;;;;;;21.62;88.50;100642.19;5102660;28;20079;-70
2023/08/27 08:38:05;;;;;;;3.83;1.23;;;;;;;21.43;88.01;100648.25;5100905;28;20036;-70
2023/08/27 08:40:38;;;;;;;4.68;1.20;;;;;;;21.48;88.06;100648.22;5097029;28;20047;-70
2023/08/27 08:43:04;;;;;;;3.85;1.30;;;;;;;21.58;87.15;100650.94;5097601;28;20043;-70
2023/08/27 08:45:37;;;;;;;4.47;1.23;;;;;;;22.06;85.19;100645.09;5099300;28;20027;-70
2023/08/27 08:48:05;;;;;;;3.30;1.10;;;;;;;22.40;84.58;100633.47;5101287;28;20035;-70
2023/08/27 08:50:32;;;;;;;4.50;1.35;;;;;;;22.24;84.18;100641.75;5101880;28;20036;-70
2023/08/27 08:53:02;;;;;;;4.97;1.40;;;;;;;22.19;84.03;100639.03;5100799;28;20054;-71
2023/08/27 08:55:30;;;;;;;3.25;1.17;;;;;;;22.41;83.59;100630.44;5099482;28;20111;-71
2023/08/27 08:58:00;;;;;;;3.85;1.20;;;;;;;22.35;84.09;100628.84;5100433;28;20043;-69
2023/08/27 09:00:27;;;;;;;4.07;1.20;;;;;;;22.35;83.84;100644.44;5101405;28;20020;-71
2023/08/27 09:02:53;;;;;;;4.18;1.20;;;;;;;22.27;83.65;100637.63;5099412;28;20106;-70
2023/08/27 09:05:19;;;;;;;3.95;1.13;;;;;;;22.26;83.93;100638.75;5076842;28;20059;-70
2023/08/27 09:07:46;;;;;;;3.33;1.10;;;;;;;22.16;83.86;100634.13;5097051;28;20020;-70
2023/08/27 09:10:12;;;;;;;4.20;1.20;;;;;;;22.02;84.15;100633.06;5098452;28;20500;-70
2023/08/27 09:12:40;;;;;;;4.65;1.20;;;;;;;22.11;83.65;100630.53;5080429;28;20415;-71
2023/08/27 09:15:08;;;;;;;3.80;1.20;;;;;;;22.12;82.67;100634.91;5093155;28;20028;-70
2023/08/27 09:17:33;;;;;;;3.20;1.00;;;;;;;22.04;82.67;100617.97;5099365;28;20046;-69
2023/08/27 09:19:59;;;;;;;3.80;1.27;;;;;;;22.07;82.59;100627.53;5097357;28;20036;-69
2023/08/27 09:22:25;;;;;;;4.07;1.00;;;;;;;22.16;82.09;100627.81;5096998;28;20725;-70
2023/08/27 09:24:51;;;;;;;1.95;0.95;;;;;;;22.38;81.10;100624.69;5097945;28;20028;-69
2023/08/27 09:27:17;;;;;;;2.13;0.98;;;;;;;22.52;80.67;100626.53;5080723;28;20506;-71
2023/08/27 09:29:43;;;;;;;3.63;1.20;;;;;;;22.46;80.98;100615.88;5096760;28;20039;-70
2023/08/27 09:32:20;;;;;;;4.40;0.95;;;;;;;22.24;80.98;100610.78;5096439;28;20388;-71
2023/08/27 09:34:46;;;;;;;4.10;1.00;;;;;;;22.23;81.38;100618.19;5094881;28;20118;-70
2023/08/27 09:37:12;;;;;;;3.65;1.10;;;;;;;22.16;81.37;100594.94;5095048;28;20040;-70
2023/08/27 09:39:39;;;;;;;4.47;1.10;;;;;;;22.28;82.14;100611.84;5097206;28;20130;-70
2023/08/27 09:42:05;;;;;;;2.92;1.20;;;;;;;22.18;82.27;100618.19;5078759;28;20032;-70
2023/08/27 09:44:31;;;;;;;3.70;0.98;;;;;;;22.18;81.78;100609.97;5096405;28;20032;-70
2023/08/27 09:47:04;;;;;;;2.70;0.95;;;;;;;22.14;81.54;100610.81;5105700;28;20027;-70
2023/08/27 09:49:29;;;;;;;4.53;1.02;;;;;;;21.92;82.46;100601.03;5101110;28;20161;-70
2023/08/27 09:51:57;;;;;;;3.88;1.10;;;;;;;21.77;83.07;100596.41;5081784;28;20109;-69
2023/08/27 09:54:29;;;;;;;3.08;1.10;;;;;;;21.82;83.31;100609.28;5078947;28;20508;-70
2023/08/27 09:56:59;;;;;;;3.67;0.90;;;;;;;21.72;83.63;100593.72;5092798;28;20031;-70
2023/08/27 09:59:32;;;;;;;3.35;0.90;;;;;;;21.79;83.82;100601.63;5070412;28;20062;-70
2023/08/27 10:01:58;;;;;;;5.97;1.17;;;;;;;21.75;84.79;100598.59;5081771;28;20082;-70
2023/08/27 10:04:24;;;;;;;2.92;0.98;;;;;;;21.80;84.64;100603.25;5081038;28;20487;-70
2023/08/27 10:06:49;;;;;;;3.55;1.10;;;;;;;21.86;84.45;100602.16;5083056;28;21218;-70
2023/08/27 10:09:16;;;;;;;4.57;1.15;;;;;;;21.93;84.45;100593.63;5050466;28;20029;-70
2023/08/27 10:11:45;;;;;;;4.10;1.17;;;;;;;21.81;84.95;100597.50;5080656;28;20064;-70
2023/08/27 10:14:10;;;;;;;4.30;1.30;;;;;;;22.00;84.03;100605.94;5080860;28;20080;-69
2023/08/27 10:16:36;;;;;;;3.65;1.15;;;;;;;22.01;83.18;100587.56;5080941;28;20155;-70
2023/08/27 10:19:04;;;;;;;5.63;1.38;;;;;;;22.28;82.87;100600.88;5081180;28;20119;-69
2023/08/27 10:21:30;;;;;;;3.58;0.98;;;;;;;22.39;81.83;100602.50;5082871;28;20027;-69
2023/08/27 10:23:56;;;;;;;3.55;1.00;;;;;;;22.24;81.25;100605.31;5087816;28;20548;-69
2023/08/27 10:26:23;;;;;;;6.28;2.00;;;;;;;22.32;80.94;100601.13;5079676;28;20081;-70
2023/08/27 10:28:52;;;;;;;4.00;0.90;;;;;;;22.51;79.73;100585.69;5079921;28;20097;-70
2023/08/27 10:31:17;;;;;;;4.60;1.00;;;;;;;22.89;77.67;100588.72;5082752;28;20021;-70
2023/08/27 10:33:43;;;;;;;3.72;1.00;;;;;;;23.00;76.48;100573.00;5084248;28;20093;-70
2023/08/27 10:36:13;;;;;;;4.25;1.23;;;;;;;23.42;76.29;100588.81;5086641;28;20609;-70
2023/08/27 10:38:40;;;;;;;4.20;0.90;;;;;;;23.68;74.99;100589.38;5081593;28;20081;-69
2023/08/27 10:41:06;;;;;;;2.58;0.80;;;;;;;23.60;74.93;100574.31;5083380;28;20056;-70
2023/08/27 10:43:33;;;;;;;2.78;0.90;;;;;;;23.54;75.61;100594.72;5083565;28;20031;-70
2023/08/27 10:46:15;;;;;;;4.10;1.20;;;;;;;23.61;73.54;100589.72;5083215;28;20535;-69
2023/08/27 10:48:48;;;;;;;2.65;0.90;;;;;;;23.77;72.83;100597.78;5111420;27;20597;-70
2023/08/27 10:51:14;;;;;;;2.33;0.90;;;;;;;23.52;74.00;100590.63;5089853;28;20063;-70
2023/08/27 10:53:41;;;;;;;3.10;1.00;;;;;;;23.60;73.64;100607.28;5082018;28;20036;-69
2023/08/27 10:56:25;;;;;;;4.40;1.00;;;;;;;23.71;73.38;100599.78;5079466;28;20483;-69
2023/08/27 10:58:51;;;;;;;4.60;1.15;;;;;;;23.74;73.23;100593.72;5082453;28;20311;-69
2023/08/27 11:01:18;;;;;;;4.25;1.10;;;;;;;23.80;72.63;100599.94;5081934;28;20032;-69
2023/08/27 11:03:53;;;;;;;2.83;1.00;;;;;;;23.76;72.89;100609.91;5081819;28;20024;-69
2023/08/27 11:06:20;;;;;;;5.63;1.25;;;;;;;23.56;73.54;100608.16;5081979;28;20313;-70
2023/08/27 11:08:50;;;;;;;5.32;1.10;;;;;;;23.64;73.46;100622.09;5081955;28;20051;-69
2023/08/27 11:11:16;;;;;;;3.80;1.00;;;;;;;23.73;73.21;100618.72;5080729;28;20032;-71
2023/08/27 11:13:41;;;;;;;2.90;1.10;;;;;;;23.97;72.56;100607.72;5082662;28;20111;-72
2023/08/27 11:16:17;;;;;;;3.22;1.08;;;;;;;24.24;71.96;100607.94;5078574;28;20096;-71
2023/08/27 11:18:52;;;;;;;6.25;1.33;;;;;;;24.14;71.46;100586.09;5087476;28;20095;-70